Time,TemperatureF,DewpointF,PressureIn,WindDirection,WindDirectionDegrees,WindSpeedMPH,WindSpeedGustMPH,Humidity,HourlyPrecipIn,Conditions,Clouds,dailyrainin,SolarRadiationWatts/m^2,SoftwareType,DateUTC
2013-10-23 00:05:00,51.2,50.7,29.99,SSW,208,0.0,0.0,98,0.00,,,0.00,0,Wunderground v.1.15,2013-10-23 07:05:00,
2013-10-23 00:14:00,51.2,50.7,29.99,SSW,208,0.0,0.0,98,0.00,,,0.00,0,Wunderground v.1.15,2013-10-23 07:14:00,
2013-10-23 00:20:00,51.1,50.6,29.99,SSW,213,0.0,0.0,98,0.00,,,0.00,0,Wunderground v.1.15,2013-10-23 07:20:00,
2013-10-23 00:25:00,51.3,50.8,29.99,SSW,213,0.0,0.0,98,0.00,,,0.00,0,Wunderground v.1.15,2013-10-23 07:25:00,
2013-10-23 00:35:00,50.9,50.4,29.99,SSW,200,0.0,0.0,98,0.00,,,0.00,0,Wunderground v.1.15,2013-10-23 07:35:00,
2013-10-23 00:40:00,51.2,50.7,29.99,SSW,197,0.0,0.0,98,0.00,,,0.00,0,Wunderground v.1.15,2013-10-23 07:40:00,
2013-10-23 00:45:00,51.2,50.7,29.99,SSW,208,0.0,0.0,98,0.00,,,0.00,0,Wunderground v.1.15,2013-10-23 07:45:00,
2013-10-23 00:55:00,51.2,50.7,29.99,SSW,204,0.0,0.0,98,0.00,,,0.00,0,Wunderground v.1.15,2013-10-23 07:55:00,
2013-10-23 01:00:00,51.1,50.6,29.99,SSW,213,0.0,0.0,98,0.00,,,0.00,0,Wunderground v.1.15,2013-10-23 08:00:00,
2013-10-23 01:10:00,51.0,50.5,29.99,SSW,213,0.0,0.0,98,0.00,,,0.00,0,Wunderground v.1.15,2013-10-23 08:10:00,
2013-10-23 01:15:00,51.0,50.5,30.00,SSW,199,0.0,0.0,98,0.00,,,0.00,0,Wunderground v.1.15,2013-10-23 08:15:00,
2013-10-23 01:20:00,50.9,50.4,30.00,SSW,213,0.0,0.0,98,0.00,,,0.00,0,Wunderground v.1.15,2013-10-23 08:20:00,
2013-10-23 01:30:00,50.7,50.2,30.00,SSW,213,0.0,0.0,98,0.00,,,0.00,0,Wunderground v.1.15,2013-10-23 08:30:00,
2013-10-23 01:35:00,51.2,50.7,30.00,SSW,208,0.0,0.0,98,0.00,,,0.00,0,Wunderground v.1.15,2013-10-23 08:35:00,
2013-10-23 01:40:00,51.0,50.5,30.00,SSW,213,0.0,0.0,98,0.00,,,0.00,0,Wunderground v.1.15,2013-10-23 08:40:00,
2013-10-23 01:50:00,51.1,50.6,30.00,SSW,213,0.0,0.0,98,0.00,,,0.00,0,Wunderground v.1.15,2013-10-23 08:50:00,
2013-10-23 01:55:00,50.8,50.3,30.00,SSW,213,0.0,0.0,98,0.00,,,0.00,0,Wunderground v.1.15,2013-10-23 08:55:00,
2013-10-23 02:05:00,50.5,50.0,30.00,SSW,213,0.0,0.0,98,0.00,,,0.00,0,Wunderground v.1.15,2013-10-23 09:05:00,
2013-10-23 02:10:00,50.6,50.1,30.00,SW,224,0.0,0.0,98,0.00,,,0.00,0,Wunderground v.1.15,2013-10-23 09:10:00,
2013-10-23 02:15:00,50.6,50.1,30.00,SSW,208,0.0,0.0,98,0.00,,,0.00,0,Wunderground v.1.15,2013-10-23 09:15:00,
2013-10-23 02:25:00,50.8,50.3,30.00,SSW,203,0.0,0.0,98,0.00,,,0.00,0,Wunderground v.1.15,2013-10-23 09:25:00,
2013-10-23 02:30:00,50.7,50.2,30.00,SSW,208,0.0,0.0,98,0.00,,,0.00,0,Wunderground v.1.15,2013-10-23 09:30:00,
2013-10-23 02:39:00,50.3,49.8,30.00,WSW,238,0.0,0.0,98,0.00,,,0.00,0,Wunderground v.1.15,2013-10-23 09:39:00,
2013-10-23 02:45:00,50.4,49.9,30.00,SSW,208,0.0,0.0,98,0.00,,,0.00,0,Wunderground v.1.15,2013-10-23 09:45:00,
2013-10-23 02:50:00,50.2,49.7,30.00,SSW,208,0.0,0.0,98,0.00,,,0.00,0,Wunderground v.1.15,2013-10-23 09:50:00,
2013-10-23 03:00:00,50.1,49.6,30.00,SSW,208,0.0,0.0,98,0.00,,,0.00,0,Wunderground v.1.15,2013-10-23 10:00:00,
2013-10-23 03:05:00,50.1,49.6,30.00,SSW,203,0.0,0.0,98,0.00,,,0.00,0,Wunderground v.1.15,2013-10-23 10:05:00,
2013-10-23 03:10:00,50.3,49.8,30.00,SSW,208,0.0,0.0,98,0.00,,,0.00,0,Wunderground v.1.15,2013-10-23 10:10:00,
2013-10-23 03:20:00,50.3,49.8,30.00,SSW,203,0.0,0.0,98,0.00,,,0.00,0,Wunderground v.1.15,2013-10-23 10:20:00,
2013-10-23 03:25:00,50.2,49.7,30.00,SSW,193,0.0,0.0,98,0.00,,,0.00,0,Wunderground v.1.15,2013-10-23 10:25:00,
2013-10-23 03:35:00,50.5,50.0,29.99,SSW,195,0.0,0.0,98,0.00,,,0.00,0,Wunderground v.1.15,2013-10-23 10:35:00,
2013-10-23 03:40:00,50.5,50.0,29.99,SSW,202,0.0,0.0,98,0.00,,,0.00,0,Wunderground v.1.15,2013-10-23 10:40:00,
2013-10-23 03:50:00,50.2,49.7,29.99,SSW,208,0.0,0.0,98,0.00,,,0.00,0,Wunderground v.1.15,2013-10-23 10:50:00,
2013-10-23 03:55:00,50.1,49.6,29.99,SSW,213,0.0,0.0,98,0.00,,,0.00,0,Wunderground v.1.15,2013-10-23 10:55:00,
2013-10-23 04:00:00,49.9,49.4,29.99,SSW,213,0.0,0.0,98,0.00,,,0.00,0,Wunderground v.1.15,2013-10-23 11:00:00,
2013-10-23 04:10:00,50.0,49.5,29.99,SSW,208,0.0,0.0,98,0.00,,,0.00,0,Wunderground v.1.15,2013-10-23 11:10:00,
2013-10-23 04:15:00,49.9,49.4,29.99,SSW,200,0.0,0.0,98,0.00,,,0.00,0,Wunderground v.1.15,2013-10-23 11:15:00,
2013-10-23 04:20:00,49.9,49.4,29.99,SSW,208,0.0,0.0,98,0.00,,,0.00,0,Wunderground v.1.15,2013-10-23 11:20:00,
2013-10-23 04:30:00,49.9,49.4,29.99,South,191,0.0,0.0,98,0.00,,,0.00,0,Wunderground v.1.15,2013-10-23 11:30:00,
2013-10-23 04:35:00,50.0,49.5,29.99,South,191,0.0,0.0,98,0.00,,,0.00,0,Wunderground v.1.15,2013-10-23 11:35:00,
2013-10-23 04:45:00,50.0,49.5,30.00,SSW,193,0.0,0.0,98,0.00,,,0.00,0,Wunderground v.1.15,2013-10-23 11:45:00,
2013-10-23 04:50:00,49.9,49.4,29.99,SSW,193,0.0,0.0,98,0.00,,,0.00,0,Wunderground v.1.15,2013-10-23 11:50:00,
2013-10-23 05:00:00,50.1,49.6,30.00,South,189,0.0,0.0,98,0.00,,,0.00,0,Wunderground v.1.15,2013-10-23 12:00:00,
2013-10-23 05:05:00,50.0,49.5,30.00,South,184,0.0,0.0,98,0.00,,,0.00,0,Wunderground v.1.15,2013-10-23 12:05:00,
2013-10-23 05:15:00,49.8,49.3,30.00,SSW,200,0.0,0.0,98,0.00,,,0.00,0,Wunderground v.1.15,2013-10-23 12:15:00,
2013-10-23 05:20:00,49.7,49.2,30.00,SSW,208,0.0,0.0,98,0.00,,,0.00,0,Wunderground v.1.15,2013-10-23 12:20:00,
2013-10-23 05:25:00,49.6,49.1,30.00,SW,222,0.0,0.0,98,0.00,,,0.00,0,Wunderground v.1.15,2013-10-23 12:25:00,
2013-10-23 05:35:00,49.6,49.1,30.00,SW,218,0.0,0.0,98,0.00,,,0.00,0,Wunderground v.1.15,2013-10-23 12:35:00,
2013-10-23 05:40:00,49.7,49.2,30.00,SSW,213,0.0,0.0,98,0.00,,,0.00,0,Wunderground v.1.15,2013-10-23 12:40:00,
2013-10-23 05:50:00,49.8,49.3,30.00,SW,228,0.0,0.0,98,0.00,,,0.00,0,Wunderground v.1.15,2013-10-23 12:50:00,
2013-10-23 05:55:00,49.8,49.3,30.00,SW,226,0.0,0.0,98,0.00,,,0.00,0,Wunderground v.1.15,2013-10-23 12:55:00,
2013-10-23 06:00:00,49.8,49.3,30.00,SW,222,0.0,0.0,98,0.00,,,0.00,0,Wunderground v.1.15,2013-10-23 13:00:00,
2013-10-23 06:05:00,49.7,49.2,30.00,SW,218,0.0,0.0,98,0.00,,,0.00,0,Wunderground v.1.15,2013-10-23 13:05:00,
2013-10-23 06:14:00,49.6,49.1,30.00,SW,222,0.0,0.0,98,0.00,,,0.00,0,Wunderground v.1.15,2013-10-23 13:14:00,
2013-10-23 06:20:00,49.5,49.0,30.00,SW,224,0.0,0.0,98,0.00,,,0.00,0,Wunderground v.1.15,2013-10-23 13:20:00,
2013-10-23 06:25:00,49.5,49.0,30.00,SW,223,0.0,0.0,98,0.00,,,0.00,0,Wunderground v.1.15,2013-10-23 13:25:00,
2013-10-23 06:30:00,49.5,49.0,30.01,WSW,243,0.0,0.0,98,0.00,,,0.00,0,Wunderground v.1.15,2013-10-23 13:30:00,
2013-10-23 06:40:00,49.4,48.9,30.01,SW,225,0.0,0.0,98,0.00,,,0.00,0,Wunderground v.1.15,2013-10-23 13:40:00,
2013-10-23 06:45:00,49.4,48.9,30.01,SW,225,0.0,0.0,98,0.00,,,0.00,0,Wunderground v.1.15,2013-10-23 13:45:00,
2013-10-23 06:50:00,49.4,48.9,30.01,SW,226,0.0,0.0,98,0.00,,,0.00,0,Wunderground v.1.15,2013-10-23 13:50:00,
2013-10-23 07:00:00,49.7,49.2,30.01,SW,226,0.0,0.0,98,0.00,,,0.00,0,Wunderground v.1.15,2013-10-23 14:00:00,
2013-10-23 07:05:00,49.7,49.2,30.01,SW,226,0.0,0.0,98,0.00,,,0.00,0,Wunderground v.1.15,2013-10-23 14:05:00,
2013-10-23 07:15:00,49.4,48.9,30.01,SW,223,0.0,0.0,98,0.00,,,0.00,0,Wunderground v.1.15,2013-10-23 14:15:00,
2013-10-23 07:20:00,49.4,48.9,30.01,SW,225,0.0,0.0,98,0.00,,,0.00,0,Wunderground v.1.15,2013-10-23 14:20:00,
2013-10-23 07:30:00,49.2,48.7,30.01,SW,224,0.0,0.0,98,0.00,,,0.00,0,Wunderground v.1.15,2013-10-23 14:30:00,
2013-10-23 07:35:00,49.2,48.7,30.01,SW,231,0.0,0.0,98,0.00,,,0.00,0,Wunderground v.1.15,2013-10-23 14:35:00,
2013-10-23 07:40:00,49.1,48.6,30.01,SW,230,0.0,0.0,98,0.00,,,0.00,0,Wunderground v.1.15,2013-10-23 14:40:00,
2013-10-23 07:50:00,49.1,48.6,30.01,SW,225,0.0,0.0,98,0.00,,,0.00,5,Wunderground v.1.15,2013-10-23 14:50:00,
2013-10-23 07:55:00,49.0,48.5,30.01,SW,226,0.0,0.0,98,0.00,,,0.00,9,Wunderground v.1.15,2013-10-23 14:55:00,
2013-10-23 08:05:00,49.0,48.5,30.01,SW,226,0.0,0.0,98,0.00,,,0.00,12,Wunderground v.1.15,2013-10-23 15:05:00,
2013-10-23 08:10:00,49.2,48.7,30.01,SW,224,0.0,0.0,98,0.00,,,0.00,16,Wunderground v.1.15,2013-10-23 15:10:00,
2013-10-23 08:15:00,49.3,48.8,30.01,SW,224,0.0,0.0,98,0.00,,,0.00,19,Wunderground v.1.15,2013-10-23 15:15:00,
2013-10-23 08:25:00,49.4,48.9,30.01,SW,223,0.0,0.0,98,0.00,,,0.00,23,Wunderground v.1.15,2013-10-23 15:25:00,
2013-10-23 08:30:00,49.5,49.0,30.01,SW,228,0.0,0.0,98,0.00,,,0.00,26,Wunderground v.1.15,2013-10-23 15:30:00,
2013-10-23 08:35:00,49.6,49.1,30.01,SW,224,0.0,0.0,98,0.00,,,0.00,28,Wunderground v.1.15,2013-10-23 15:35:00,
2013-10-23 08:45:00,49.7,49.2,30.01,SW,227,0.0,0.0,98,0.00,,,0.00,35,Wunderground v.1.15,2013-10-23 15:45:00,
2013-10-23 08:50:00,49.7,49.2,30.01,SW,227,0.0,0.0,98,0.00,,,0.00,39,Wunderground v.1.15,2013-10-23 15:50:00,
2013-10-23 09:00:00,49.4,48.9,30.02,SW,226,0.0,0.0,98,0.00,,,0.00,46,Wunderground v.1.15,2013-10-23 16:00:00,
2013-10-23 09:05:00,49.4,48.9,30.02,SW,226,0.0,0.0,98,0.00,,,0.00,51,Wunderground v.1.15,2013-10-23 16:05:00,
2013-10-23 09:10:00,49.3,48.8,30.02,SW,228,0.0,0.0,98,0.00,,,0.00,56,Wunderground v.1.15,2013-10-23 16:10:00,
2013-10-23 09:20:00,49.1,48.6,30.02,SW,227,0.0,0.0,98,0.00,,,0.00,63,Wunderground v.1.15,2013-10-23 16:20:00,
2013-10-23 09:25:00,49.2,48.7,30.02,SW,226,0.0,0.0,98,0.00,,,0.00,63,Wunderground v.1.15,2013-10-23 16:25:00,
2013-10-23 09:35:00,49.3,48.8,30.01,SW,223,0.0,0.0,98,0.00,,,0.00,77,Wunderground v.1.15,2013-10-23 16:35:00,
2013-10-23 09:40:00,49.3,48.8,30.01,SW,226,0.0,0.0,98,0.00,,,0.00,81,Wunderground v.1.15,2013-10-23 16:40:00,
2013-10-23 09:45:00,49.3,48.8,30.02,SW,224,0.0,0.0,98,0.00,,,0.00,77,Wunderground v.1.15,2013-10-23 16:45:00,
2013-10-23 09:55:00,49.5,49.0,30.01,SW,222,0.0,0.0,98,0.00,,,0.00,88,Wunderground v.1.15,2013-10-23 16:55:00,
2013-10-23 10:00:00,49.8,49.3,30.01,SW,223,0.0,0.0,98,0.00,,,0.00,90,Wunderground v.1.15,2013-10-23 17:00:00,
2013-10-23 10:10:00,50.0,49.5,30.01,SW,227,0.0,0.0,98,0.00,,,0.00,116,Wunderground v.1.15,2013-10-23 17:10:00,
2013-10-23 10:15:00,50.1,49.6,30.01,SW,223,0.0,0.0,98,0.00,,,0.00,114,Wunderground v.1.15,2013-10-23 17:15:00,
2013-10-23 10:20:00,50.4,49.9,30.01,SW,223,0.0,0.0,98,0.00,,,0.00,109,Wunderground v.1.15,2013-10-23 17:20:00,
2013-10-23 10:30:00,50.2,49.7,30.01,SW,224,0.0,0.0,98,0.00,,,0.00,134,Wunderground v.1.15,2013-10-23 17:30:00,
2013-10-23 10:35:00,50.6,50.1,30.01,SW,225,0.0,0.0,98,0.00,,,0.00,144,Wunderground v.1.15,2013-10-23 17:35:00,
2013-10-23 10:45:00,50.5,50.0,30.01,SW,222,0.0,0.0,98,0.00,,,0.00,149,Wunderground v.1.15,2013-10-23 17:45:00,
2013-10-23 10:50:00,50.4,49.9,30.01,SW,224,0.0,0.0,98,0.00,,,0.00,171,Wunderground v.1.15,2013-10-23 17:50:00,
2013-10-23 10:55:00,50.3,49.8,30.00,SW,229,0.0,0.0,98,0.00,,,0.00,167,Wunderground v.1.15,2013-10-23 17:55:00,
2013-10-23 11:05:00,50.7,50.4,30.00,SW,226,0.0,0.0,99,0.00,,,0.00,179,Wunderground v.1.15,2013-10-23 18:05:00,
2013-10-23 11:10:00,50.8,50.5,30.00,SW,230,0.0,0.0,99,0.00,,,0.00,209,Wunderground v.1.15,2013-10-23 18:10:00,
2013-10-23 11:20:00,51.2,50.7,30.00,SW,226,0.0,0.0,98,0.00,,,0.00,237,Wunderground v.1.15,2013-10-23 18:20:00,
2013-10-23 11:25:00,50.9,50.4,30.00,SW,227,0.0,0.0,98,0.00,,,0.00,227,Wunderground v.1.15,2013-10-23 18:25:00,
2013-10-23 11:30:00,51.1,50.6,30.00,SW,225,0.0,0.0,98,0.00,,,0.00,236,Wunderground v.1.15,2013-10-23 18:30:00,
2013-10-23 11:40:00,50.9,50.4,30.00,SW,228,0.0,0.0,98,0.00,,,0.00,329,Wunderground v.1.15,2013-10-23 18:40:00,
2013-10-23 11:45:00,51.0,50.5,30.00,SW,222,0.0,0.0,98,0.00,,,0.00,376,Wunderground v.1.15,2013-10-23 18:45:00,
2013-10-23 11:55:00,51.1,50.6,29.99,SW,228,0.0,0.0,98,0.00,,,0.00,258,Wunderground v.1.15,2013-10-23 18:55:00,
2013-10-23 12:05:00,51.6,51.1,29.99,SW,226,0.0,0.0,98,0.00,,,0.00,429,Wunderground v.1.15,2013-10-23 19:05:00,
2013-10-23 12:10:00,51.5,51.0,29.99,SW,225,0.0,0.0,98,0.00,,,0.00,330,Wunderground v.1.15,2013-10-23 19:10:00,
2013-10-23 12:15:00,51.8,51.3,29.99,SW,226,0.0,0.0,98,0.00,,,0.00,452,Wunderground v.1.15,2013-10-23 19:15:00,
2013-10-23 12:25:00,51.8,51.3,29.99,SW,226,0.0,0.0,98,0.00,,,0.00,561,Wunderground v.1.15,2013-10-23 19:25:00,
2013-10-23 12:30:00,52.1,51.6,29.99,SW,223,0.0,0.0,98,0.00,,,0.00,621,Wunderground v.1.15,2013-10-23 19:30:00,
2013-10-23 12:40:00,52.7,52.2,29.98,SW,225,0.0,0.0,98,0.00,,,0.00,633,Wunderground v.1.15,2013-10-23 19:40:00,
2013-10-23 12:45:00,53.4,52.8,29.98,SW,223,0.0,0.0,98,0.00,,,0.00,629,Wunderground v.1.15,2013-10-23 19:45:00,
2013-10-23 12:50:00,53.4,52.8,29.98,SW,226,0.0,0.0,98,0.00,,,0.00,628,Wunderground v.1.15,2013-10-23 19:50:00,
2013-10-23 13:00:00,53.8,53.0,29.98,SW,226,0.0,0.0,97,0.00,,,0.00,629,Wunderground v.1.15,2013-10-23 20:00:00,
2013-10-23 13:05:00,54.0,53.2,29.97,SW,226,0.0,0.0,97,0.00,,,0.00,645,Wunderground v.1.15,2013-10-23 20:05:00,
2013-10-23 13:15:00,54.1,53.0,29.97,SW,222,0.0,0.0,96,0.00,,,0.00,628,Wunderground v.1.15,2013-10-23 20:15:00,
2013-10-23 13:20:00,54.5,53.4,29.96,SW,224,0.0,0.0,96,0.00,,,0.00,631,Wunderground v.1.15,2013-10-23 20:20:00,
2013-10-23 13:25:00,54.5,53.4,29.96,SW,222,0.0,0.0,96,0.00,,,0.00,628,Wunderground v.1.15,2013-10-23 20:25:00,
2013-10-23 13:35:00,54.5,53.1,29.96,SW,230,0.0,0.0,95,0.00,,,0.00,631,Wunderground v.1.15,2013-10-23 20:35:00,
2013-10-23 13:40:00,54.3,52.9,29.95,WSW,241,0.0,0.0,95,0.00,,,0.00,622,Wunderground v.1.15,2013-10-23 20:40:00,
2013-10-23 13:45:00,54.5,53.1,29.95,SW,228,0.0,0.0,95,0.00,,,0.00,622,Wunderground v.1.15,2013-10-23 20:45:00,
2013-10-23 13:55:00,55.2,53.8,29.95,SW,228,0.0,0.0,95,0.00,,,0.00,613,Wunderground v.1.15,2013-10-23 20:55:00,
2013-10-23 14:00:00,55.7,54.0,29.95,WSW,248,0.0,0.0,94,0.00,,,0.00,608,Wunderground v.1.15,2013-10-23 21:00:00,
2013-10-23 14:05:00,55.7,53.7,29.95,WSW,255,0.0,0.0,93,0.00,,,0.00,601,Wunderground v.1.15,2013-10-23 21:05:00,
2013-10-23 14:15:00,55.5,53.2,29.94,WSW,253,0.0,0.0,92,0.00,,,0.00,591,Wunderground v.1.15,2013-10-23 21:15:00,
2013-10-23 14:20:00,55.7,53.7,29.94,WSW,240,0.0,0.0,93,0.00,,,0.00,585,Wunderground v.1.15,2013-10-23 21:20:00,
2013-10-23 14:30:00,55.4,53.1,29.94,SW,236,0.0,0.0,92,0.00,,,0.00,573,Wunderground v.1.15,2013-10-23 21:30:00,
2013-10-23 14:35:00,55.6,53.3,29.94,SW,228,0.0,0.0,92,0.00,,,0.00,568,Wunderground v.1.15,2013-10-23 21:35:00,
2013-10-23 14:40:00,55.5,53.2,29.94,WSW,242,0.0,0.0,92,0.00,,,0.00,557,Wunderground v.1.15,2013-10-23 21:40:00,
2013-10-23 14:50:00,55.3,53.0,29.93,WSW,255,0.0,0.0,92,0.00,,,0.00,541,Wunderground v.1.15,2013-10-23 21:50:00,
2013-10-23 14:55:00,55.2,52.6,29.94,West,259,0.0,0.0,91,0.00,,,0.00,534,Wunderground v.1.15,2013-10-23 21:55:00,
2013-10-23 15:05:00,55.3,53.0,29.94,WSW,241,0.0,0.0,92,0.00,,,0.00,517,Wunderground v.1.15,2013-10-23 22:05:00,
2013-10-23 15:10:00,55.8,53.5,29.94,SSW,199,0.0,0.0,92,0.00,,,0.00,508,Wunderground v.1.15,2013-10-23 22:10:00,
2013-10-23 15:20:00,56.2,53.9,29.93,SW,218,0.0,0.0,92,0.00,,,0.00,485,Wunderground v.1.15,2013-10-23 22:20:00,
2013-10-23 15:25:00,56.3,53.7,29.93,SSW,204,0.0,0.0,91,0.00,,,0.00,475,Wunderground v.1.15,2013-10-23 22:25:00,
2013-10-23 15:30:00,56.5,54.2,29.93,SW,224,0.0,0.0,92,0.00,,,0.00,464,Wunderground v.1.15,2013-10-23 22:30:00,
2013-10-23 15:40:00,57.0,54.4,29.93,SW,224,0.0,0.0,91,0.00,,,0.00,445,Wunderground v.1.15,2013-10-23 22:40:00,
2013-10-23 15:45:00,57.1,54.5,29.93,SW,222,0.0,0.0,91,0.00,,,0.00,431,Wunderground v.1.15,2013-10-23 22:45:00,
2013-10-23 15:55:00,57.2,54.3,29.93,WSW,242,0.0,0.0,90,0.00,,,0.00,404,Wunderground v.1.15,2013-10-23 22:55:00,
2013-10-23 16:00:00,57.2,54.3,29.93,SW,218,0.0,0.0,90,0.00,,,0.00,392,Wunderground v.1.15,2013-10-23 23:00:00,
2013-10-23 16:10:00,56.8,53.9,29.93,SW,228,0.0,0.0,90,0.00,,,0.00,366,Wunderground v.1.15,2013-10-23 23:10:00,
2013-10-23 16:15:00,56.6,53.7,29.93,SW,223,0.0,0.0,90,0.00,,,0.00,352,Wunderground v.1.15,2013-10-23 23:15:00,
2013-10-23 16:25:00,56.8,53.9,29.93,SW,228,0.0,0.0,90,0.00,,,0.00,323,Wunderground v.1.15,2013-10-23 23:25:00,
2013-10-23 16:30:00,57.0,54.1,29.93,SW,228,0.0,0.0,90,0.00,,,0.00,309,Wunderground v.1.15,2013-10-23 23:30:00,
2013-10-23 16:35:00,57.2,54.3,29.93,WSW,239,0.0,0.0,90,0.00,,,0.00,294,Wunderground v.1.15,2013-10-23 23:35:00,
2013-10-23 16:45:00,56.9,54.0,29.93,SSW,208,0.0,0.0,90,0.00,,,0.00,265,Wunderground v.1.15,2013-10-23 23:45:00,
2013-10-23 16:50:00,56.6,53.7,29.93,SSW,208,0.0,0.0,90,0.00,,,0.00,250,Wunderground v.1.15,2013-10-23 23:50:00,
2013-10-23 17:00:00,56.5,53.6,29.93,SW,218,0.0,0.0,90,0.00,,,0.00,214,Wunderground v.1.15,2013-10-24 00:00:00,
2013-10-23 17:05:00,56.4,53.5,29.93,SSW,213,0.0,0.0,90,0.00,,,0.00,195,Wunderground v.1.15,2013-10-24 00:05:00,
2013-10-23 17:15:00,56.4,53.5,29.93,SW,222,0.0,0.0,90,0.00,,,0.00,156,Wunderground v.1.15,2013-10-24 00:15:00,
2013-10-23 17:20:00,56.0,53.1,29.93,SSW,213,0.0,0.0,90,0.00,,,0.00,137,Wunderground v.1.15,2013-10-24 00:20:00,
2013-10-23 17:30:00,55.4,52.8,29.93,SW,227,0.0,0.0,91,0.00,,,0.00,104,Wunderground v.1.15,2013-10-24 00:30:00,
2013-10-23 17:35:00,54.9,52.3,29.93,WSW,256,0.0,0.0,91,0.00,,,0.00,88,Wunderground v.1.15,2013-10-24 00:35:00,
2013-10-23 17:45:00,54.3,52.0,29.93,SSW,208,0.0,0.0,92,0.00,,,0.00,58,Wunderground v.1.15,2013-10-24 00:45:00,
2013-10-23 17:50:00,54.1,51.8,29.93,SSW,202,0.0,0.0,92,0.00,,,0.00,44,Wunderground v.1.15,2013-10-24 00:50:00,
2013-10-23 18:00:00,53.9,51.9,29.93,SSW,213,0.0,0.0,93,0.00,,,0.00,25,Wunderground v.1.15,2013-10-24 01:00:00,
2013-10-23 18:05:00,54.0,52.3,29.93,SSW,213,0.0,0.0,94,0.00,,,0.00,18,Wunderground v.1.15,2013-10-24 01:05:00,
2013-10-23 18:15:00,54.0,52.3,29.94,SW,222,0.0,0.0,94,0.00,,,0.00,7,Wunderground v.1.15,2013-10-24 01:15:00,
2013-10-23 18:20:00,53.8,51.8,29.94,SSW,203,0.0,0.0,93,0.00,,,0.00,5,Wunderground v.1.15,2013-10-24 01:20:00,
2013-10-23 18:29:00,53.5,51.8,29.94,WSW,241,0.0,0.0,94,0.00,,,0.00,0,Wunderground v.1.15,2013-10-24 01:29:00,
2013-10-23 18:35:00,53.2,51.5,29.94,SSW,208,0.0,0.0,94,0.00,,,0.00,0,Wunderground v.1.15,2013-10-24 01:35:00,
2013-10-23 18:40:00,53.3,51.6,29.94,SW,218,0.0,0.0,94,0.00,,,0.00,0,Wunderground v.1.15,2013-10-24 01:40:00,
2013-10-23 18:50:00,53.0,51.3,29.94,SSW,203,0.0,0.0,94,0.00,,,0.00,0,Wunderground v.1.15,2013-10-24 01:50:00,
2013-10-23 19:00:00,53.0,51.6,29.95,SSW,203,0.0,0.0,95,0.00,,,0.00,0,Wunderground v.1.15,2013-10-24 02:00:00,
2013-10-23 19:05:00,52.8,51.4,29.95,SW,222,0.0,0.0,95,0.00,,,0.00,0,Wunderground v.1.15,2013-10-24 02:05:00,
2013-10-23 19:10:00,52.7,51.3,29.95,SSW,199,0.0,0.0,95,0.00,,,0.00,0,Wunderground v.1.15,2013-10-24 02:10:00,
2013-10-23 19:20:00,52.6,51.2,29.96,SSW,198,0.0,0.0,95,0.00,,,0.00,0,Wunderground v.1.15,2013-10-24 02:20:00,
2013-10-23 19:25:00,52.9,51.8,29.96,SSW,204,0.0,0.0,96,0.00,,,0.00,0,Wunderground v.1.15,2013-10-24 02:25:00,
2013-10-23 19:35:00,52.7,51.6,29.96,SSW,199,0.0,0.0,96,0.00,,,0.00,0,Wunderground v.1.15,2013-10-24 02:35:00,
2013-10-23 19:40:00,52.8,51.7,29.96,SSW,198,0.0,0.0,96,0.00,,,0.00,0,Wunderground v.1.15,2013-10-24 02:40:00,
2013-10-23 19:50:00,52.5,51.4,29.97,SSW,199,0.0,0.0,96,0.00,,,0.00,0,Wunderground v.1.15,2013-10-24 02:50:00,
2013-10-23 19:55:00,52.5,51.4,29.97,SSW,201,0.0,0.0,96,0.00,,,0.00,0,Wunderground v.1.15,2013-10-24 02:55:00,
2013-10-23 20:05:00,52.6,51.5,29.97,SSW,193,0.0,0.0,96,0.00,,,0.00,0,Wunderground v.1.15,2013-10-24 03:05:00,
2013-10-23 20:15:00,52.6,51.5,29.97,SSW,197,0.0,0.0,96,0.00,,,0.00,0,Wunderground v.1.15,2013-10-24 03:15:00,
2013-10-23 20:20:00,52.5,51.4,29.97,SSW,199,0.0,0.0,96,0.00,,,0.00,0,Wunderground v.1.15,2013-10-24 03:20:00,
2013-10-23 20:30:00,52.3,51.2,29.97,SSW,208,0.0,0.0,96,0.00,,,0.00,0,Wunderground v.1.15,2013-10-24 03:30:00,
2013-10-23 20:35:00,52.2,51.1,29.97,SSW,196,0.0,0.0,96,0.00,,,0.00,0,Wunderground v.1.15,2013-10-24 03:35:00,
2013-10-23 20:45:00,52.1,51.0,29.98,SSW,201,0.0,0.0,96,0.00,,,0.00,0,Wunderground v.1.15,2013-10-24 03:45:00,
2013-10-23 20:50:00,52.2,51.1,29.98,SSW,199,0.0,0.0,96,0.00,,,0.00,0,Wunderground v.1.15,2013-10-24 03:50:00,
2013-10-23 21:00:00,52.4,51.3,29.98,SSW,208,0.0,0.0,96,0.00,,,0.00,0,Wunderground v.1.15,2013-10-24 04:00:00,
2013-10-23 21:04:00,52.4,51.3,29.98,SSW,202,0.0,0.0,96,0.00,,,0.00,0,Wunderground v.1.15,2013-10-24 04:04:00,
2013-10-23 21:10:00,52.2,51.1,29.98,SSW,202,0.0,0.0,96,0.00,,,0.00,0,Wunderground v.1.15,2013-10-24 04:10:00,
2013-10-23 21:15:00,52.3,51.2,29.98,SSW,195,0.0,0.0,96,0.00,,,0.00,0,Wunderground v.1.15,2013-10-24 04:15:00,
2013-10-23 21:19:00,52.4,51.3,29.98,SSW,199,0.0,0.0,96,0.00,,,0.00,0,Wunderground v.1.15,2013-10-24 04:19:00,
2013-10-23 21:25:00,52.4,51.3,29.98,SSW,198,0.0,0.0,96,0.00,,,0.00,0,Wunderground v.1.15,2013-10-24 04:25:00,
2013-10-23 21:30:00,52.4,51.3,29.99,SSW,213,0.0,0.0,96,0.00,,,0.00,0,Wunderground v.1.15,2013-10-24 04:30:00,
2013-10-23 21:35:00,52.2,51.1,29.99,SSW,208,0.0,0.0,96,0.00,,,0.00,0,Wunderground v.1.15,2013-10-24 04:35:00,
2013-10-23 21:40:00,52.3,51.2,29.99,SSW,208,0.0,0.0,96,0.00,,,0.00,0,Wunderground v.1.15,2013-10-24 04:40:00,
2013-10-23 21:49:00,52.2,50.8,29.99,SSW,208,0.0,0.0,95,0.00,,,0.00,0,Wunderground v.1.15,2013-10-24 04:49:00,
2013-10-23 21:55:00,52.1,50.7,29.99,SSW,208,0.0,0.0,95,0.00,,,0.00,0,Wunderground v.1.15,2013-10-24 04:55:00,
2013-10-23 22:04:00,52.2,50.8,30.00,SSW,208,0.0,0.0,95,0.00,,,0.00,0,Wunderground v.1.15,2013-10-24 05:04:00,
2013-10-23 22:10:00,52.3,51.2,30.00,SSW,204,0.0,0.0,96,0.00,,,0.00,0,Wunderground v.1.15,2013-10-24 05:10:00,
2013-10-23 22:20:00,52.4,51.0,30.00,SSW,213,0.0,0.0,95,0.00,,,0.00,0,Wunderground v.1.15,2013-10-24 05:20:00,
2013-10-23 22:25:00,52.3,50.9,30.00,SSW,195,0.0,0.0,95,0.00,,,0.00,0,Wunderground v.1.15,2013-10-24 05:25:00,
2013-10-23 22:35:00,52.3,50.9,30.00,SSW,213,0.0,0.0,95,0.00,,,0.00,0,Wunderground v.1.15,2013-10-24 05:35:00,
2013-10-23 22:45:00,52.1,50.7,30.01,SW,222,0.0,0.0,95,0.00,,,0.00,0,Wunderground v.1.15,2013-10-24 05:45:00,
2013-10-23 22:50:00,52.2,50.8,30.01,SSW,208,0.0,0.0,95,0.00,,,0.00,0,Wunderground v.1.15,2013-10-24 05:50:00,
2013-10-23 23:00:00,52.0,50.6,30.01,SSW,213,0.0,0.0,95,0.00,,,0.00,0,Wunderground v.1.15,2013-10-24 06:00:00,
2013-10-23 23:05:00,52.2,50.8,30.01,SSW,213,0.0,0.0,95,0.00,,,0.00,0,Wunderground v.1.15,2013-10-24 06:05:00,
2013-10-23 23:10:00,52.3,50.9,30.01,WSW,239,0.0,0.0,95,0.00,,,0.00,0,Wunderground v.1.15,2013-10-24 06:10:00,
2013-10-23 23:20:00,52.3,50.9,30.02,WSW,240,0.0,0.0,95,0.00,,,0.00,0,Wunderground v.1.15,2013-10-24 06:20:00,
2013-10-23 23:30:00,52.3,50.9,30.02,SW,218,0.0,0.0,95,0.00,,,0.00,0,Wunderground v.1.15,2013-10-24 06:30:00,
2013-10-23 23:35:00,52.3,50.6,30.02,SSW,213,0.0,0.0,94,0.00,,,0.00,0,Wunderground v.1.15,2013-10-24 06:35:00,
2013-10-23 23:45:00,52.2,50.5,30.02,SW,222,0.0,0.0,94,0.00,,,0.00,0,Wunderground v.1.15,2013-10-24 06:45:00,
2013-10-23 23:50:00,52.2,50.5,30.02,SW,228,0.0,0.0,94,0.00,,,0.00,0,Wunderground v.1.15,2013-10-24 06:50:00,